Georgetown, TX (78633)

3:58 PM CDT on September 03, 2015 (GMT -0500)
Serenada West | | Change Station
CLOSE
Current Station
Personal Weather Station
Location: Georgetown, TX
Elevation: 790 ft
Nearby Weather Stations

Elev 790 ft 30.69 °N, 97.70 °W | Updated 31 seconds ago

Scattered Clouds
Scattered Clouds
94.5 °F
Feels Like 90 °F
N
2.2
Wind Variable Wind from SSE
Gusts 10.1 mph

Today
High -- | Low -- °F
--% Chance of Precip.
Yesterday
High -- | Low -- °F
Precip. -- in
7:08 AM 7:51 PM
Waning Gibbous, 67% visible
Pressure 29.89 in
Visibility 10.0 miles
Clouds Scattered Clouds 5500 ft
Heat Index 90 °F
Dew Point 17 °F
Humidity 6%
Rainfall 0.00 in
Snow Depth Not available.
UV 6 out of 12
Pollen 7.20 out of 12
Air Quality Not available.
Flu Activity Not available.
METAR KGTU 032050Z 15006KT 10SM SCT055 33/18 A2989
Pressure 29.89 in
Visibility 10.0 miles
Clouds Scattered Clouds 5500 ft
Heat Index 90 °F
Dew Point 17 °F
Humidity 6%
Rainfall 0.00 in
Snow Depth Not available.
UV 6 out of 12
Pollen 7.20 out of 12
Air Quality Not available.
Flu Activity Not available.
METAR KGTU 032050Z 15006KT 10SM SCT055 33/18 A2989

10-Day Weather Forecast

×

Almanac

Astronomy

Sep. 03, 2015 Rise Set
Actual Time
Civil Twilight
Nautical Twilight
Astronomical Twilight
Moon
Length of Visible Light
Length of Day
Tomorrow will be .
, % of the Moon is Illuminated

Today's Extremes

State Highs State Lows

Community

WunderPhotos

Upload Photos

1,852,036 photos uploaded!

WunderBlogs® & News

Nearby

Air Quality

  Air Quality AQ Index Pollutant
Not available.

Snow Depth

Station Depth Elevation

Earthquake Activity

City Distance Mag. Time & Date
Minimum magnitude displayed is 2.5.

Coastal Water Temperatures

Place Temperature

Stations

Nearby Weather Stations

Station Location Temp. Windchill Dew Point Humidity Wind Precip. Elev Updated Type